createdAt,value
2022-09-28T00:01:24.247Z,18.89
2022-09-28T00:07:32.158Z,18.83
2022-09-28T00:10:00.260Z,18.39
2022-09-28T19:26:28.612Z,20.49
2022-09-28T19:28:57.672Z,20.46
2022-09-28T19:32:03.502Z,20.47
2022-09-28T19:34:33.554Z,20.45
2022-09-28T19:37:04.127Z,20.33
2022-09-28T19:39:31.352Z,20.54
2022-09-28T19:42:00.048Z,20.57
2022-09-28T19:44:29.160Z,20.43
2022-09-28T19:48:03.836Z,20.42
2022-09-28T19:50:32.158Z,20.45
2022-09-28T19:53:01.892Z,20.34
2022-09-28T19:55:36.694Z,20.45
2022-09-28T19:58:04.279Z,20.62
2022-09-28T20:00:31.551Z,20.60
2022-09-28T20:02:59.036Z,20.55
2022-09-28T20:05:26.166Z,20.71
2022-09-28T20:07:53.390Z,20.67
2022-09-28T20:10:20.535Z,20.62
2022-09-28T20:12:47.674Z,20.74
2022-09-28T20:15:14.978Z,21.19
2022-09-28T20:17:42.275Z,20.75
2022-09-28T20:20:09.425Z,20.98
2022-09-28T20:22:37.343Z,20.91
2022-09-28T20:25:04.595Z,20.92
2022-09-28T20:27:31.730Z,20.92
2022-09-28T20:29:59.896Z,20.62
2022-09-28T20:32:27.066Z,21.15
2022-09-28T20:34:56.452Z,20.74
2022-09-28T20:37:25.554Z,20.83
2022-09-28T20:39:53.637Z,21.01
2022-09-28T20:42:21.190Z,20.91
2022-09-28T20:44:48.280Z,20.67
2022-09-28T20:47:15.312Z,20.85
2022-09-28T20:49:44.878Z,20.74
2022-09-28T20:52:13.192Z,20.46
2022-09-28T20:54:40.720Z,20.90
2022-09-28T20:57:17.717Z,20.86
2022-09-28T20:59:53.635Z,20.89
2022-09-28T21:02:22.673Z,20.86
2022-09-28T21:04:49.887Z,20.68
2022-09-28T21:07:16.988Z,20.91
2022-09-28T21:09:44.081Z,20.63
2022-09-28T21:12:11.192Z,20.88
2022-09-28T21:14:38.271Z,20.90
2022-09-28T21:17:05.299Z,20.64
2022-09-28T21:19:32.400Z,20.72
2022-09-28T21:21:59.458Z,20.90
2022-09-28T21:24:26.794Z,20.66
2022-09-28T21:26:55.845Z,20.75
2022-09-28T21:29:22.898Z,20.77
2022-09-28T21:31:50.213Z,20.60
2022-09-28T21:34:19.615Z,20.65
2022-09-28T21:36:53.097Z,20.64
2022-09-28T21:39:20.605Z,20.63
2022-09-28T21:41:47.702Z,20.64
2022-09-28T21:44:14.845Z,20.82
2022-09-28T21:46:42.390Z,20.73
2022-09-28T21:49:10.624Z,20.73
2022-09-28T21:51:38.325Z,20.67
2022-09-28T21:54:06.050Z,20.64
2022-09-28T21:56:33.145Z,20.70
2022-09-28T21:59:02.690Z,20.85
2022-09-28T22:01:29.789Z,20.78
2022-09-28T22:03:57.177Z,20.73
2022-09-28T22:06:28.193Z,20.77
2022-09-28T22:08:55.725Z,20.73
2022-09-28T22:11:25.078Z,20.68
2022-09-28T22:14:00.286Z,20.67
2022-09-28T22:16:30.683Z,20.89
2022-09-28T22:18:58.930Z,20.86
2022-09-28T22:21:29.047Z,21.15
2022-09-28T22:24:01.415Z,20.44
2022-09-28T22:26:30.408Z,20.71
2022-09-28T22:29:00.351Z,20.86
2022-09-28T22:31:30.761Z,20.71
2022-09-28T22:34:07.618Z,20.84
2022-09-28T22:36:34.821Z,20.83
2022-09-28T22:39:02.770Z,20.78
2022-09-28T22:41:30.218Z,20.79
2022-09-28T22:43:57.771Z,20.74
2022-09-28T22:46:32.133Z,20.75
2022-09-28T22:49:00.155Z,20.72
2022-09-28T22:51:29.102Z,20.72
2022-09-28T22:53:59.854Z,20.76
2022-09-28T22:56:27.191Z,20.64
2022-09-28T22:58:54.833Z,20.73
2022-09-28T23:01:30.025Z,21.15
2022-09-28T23:03:58.566Z,21.01
2022-09-28T23:06:28.417Z,21.17
2022-09-28T23:08:55.724Z,20.94
2022-09-28T23:11:22.910Z,20.64
2022-09-28T23:13:51.039Z,20.91
2022-09-28T23:16:18.310Z,20.67
2022-09-28T23:18:45.491Z,20.97
2022-09-28T23:21:18.424Z,20.96
2022-09-28T23:23:46.770Z,21.10
2022-09-28T23:26:16.252Z,20.91
2022-09-28T23:28:44.021Z,20.92
2022-09-28T23:31:31.976Z,21.09
2022-09-28T23:34:01.064Z,20.91
2022-09-28T23:36:28.301Z,21.08
2022-09-28T23:38:55.597Z,20.95
2022-09-28T23:41:22.812Z,20.91
2022-09-28T23:43:49.930Z,20.88
2022-09-28T23:46:20.711Z,21.25
2022-09-28T23:48:49.156Z,21.04
2022-09-28T23:51:16.714Z,21.02
